sensor_id;sensor_type;location;lat;lon;timestamp;temperature;humidity
80367;DHT22;70058;42.660;23.366;2023-07-29T00:01:56;21.80;41.00
80367;DHT22;70058;42.660;23.366;2023-07-29T00:04:25;21.80;41.00
80367;DHT22;70058;42.660;23.366;2023-07-29T00:06:51;21.90;41.10
80367;DHT22;70058;42.660;23.366;2023-07-29T00:09:20;21.80;41.20
80367;DHT22;70058;42.660;23.366;2023-07-29T00:11:49;21.70;41.40
80367;DHT22;70058;42.660;23.366;2023-07-29T00:14:16;21.80;41.40
80367;DHT22;70058;42.660;23.366;2023-07-29T00:16:44;21.70;41.60
80367;DHT22;70058;42.660;23.366;2023-07-29T00:19:10;21.60;41.80
80367;DHT22;70058;42.660;23.366;2023-07-29T00:21:36;21.60;41.50
80367;DHT22;70058;42.660;23.366;2023-07-29T00:24:02;21.50;42.00
80367;DHT22;70058;42.660;23.366;2023-07-29T00:26:27;21.50;41.80
80367;DHT22;70058;42.660;23.366;2023-07-29T00:28:55;21.70;41.20
80367;DHT22;70058;42.660;23.366;2023-07-29T00:31:21;21.60;41.60
80367;DHT22;70058;42.660;23.366;2023-07-29T00:33:47;21.50;41.80
80367;DHT22;70058;42.660;23.366;2023-07-29T00:36:12;21.50;42.10
80367;DHT22;70058;42.660;23.366;2023-07-29T00:38:44;21.40;42.40
80367;DHT22;70058;42.660;23.366;2023-07-29T00:41:11;21.50;42.80
80367;DHT22;70058;42.660;23.366;2023-07-29T00:43:38;21.50;42.80
80367;DHT22;70058;42.660;23.366;2023-07-29T00:46:04;21.40;42.80
80367;DHT22;70058;42.660;23.366;2023-07-29T00:48:31;21.40;42.70
80367;DHT22;70058;42.660;23.366;2023-07-29T00:50:57;21.40;42.80
80367;DHT22;70058;42.660;23.366;2023-07-29T00:53:22;21.30;43.20
80367;DHT22;70058;42.660;23.366;2023-07-29T00:55:48;21.30;43.20
80367;DHT22;70058;42.660;23.366;2023-07-29T00:58:14;21.30;43.20
80367;DHT22;70058;42.660;23.366;2023-07-29T01:00:40;21.20;43.50
80367;DHT22;70058;42.660;23.366;2023-07-29T01:03:05;21.10;43.80
80367;DHT22;70058;42.660;23.366;2023-07-29T01:05:50;21.10;43.80
80367;DHT22;70058;42.660;23.366;2023-07-29T01:12:06;21.00;44.20
80367;DHT22;70058;42.660;23.366;2023-07-29T01:16:53;20.90;44.40
80367;DHT22;70058;42.660;23.366;2023-07-29T01:22:24;20.90;44.60
80367;DHT22;70058;42.660;23.366;2023-07-29T01:24:50;20.80;44.80
80367;DHT22;70058;42.660;23.366;2023-07-29T01:27:16;20.70;45.00
80367;DHT22;70058;42.660;23.366;2023-07-29T01:29:41;20.80;44.60
80367;DHT22;70058;42.660;23.366;2023-07-29T01:32:11;20.90;44.50
80367;DHT22;70058;42.660;23.366;2023-07-29T01:34:49;20.80;44.50
80367;DHT22;70058;42.660;23.366;2023-07-29T01:37:21;20.70;44.60
80367;DHT22;70058;42.660;23.366;2023-07-29T01:39:50;20.70;44.60
80367;DHT22;70058;42.660;23.366;2023-07-29T01:42:16;20.70;44.60
80367;DHT22;70058;42.660;23.366;2023-07-29T01:44:42;20.70;44.60
80367;DHT22;70058;42.660;23.366;2023-07-29T01:47:08;20.60;44.90
80367;DHT22;70058;42.660;23.366;2023-07-29T01:49:34;20.60;45.00
80367;DHT22;70058;42.660;23.366;2023-07-29T01:51:59;20.60;45.40
80367;DHT22;70058;42.660;23.366;2023-07-29T01:54:25;20.60;45.30
80367;DHT22;70058;42.660;23.366;2023-07-29T01:59:38;20.60;45.50
80367;DHT22;70058;42.660;23.366;2023-07-29T02:02:04;20.40;46.60
80367;DHT22;70058;42.660;23.366;2023-07-29T02:04:30;20.50;45.70
80367;DHT22;70058;42.660;23.366;2023-07-29T02:06:55;20.50;45.80
80367;DHT22;70058;42.660;23.366;2023-07-29T02:09:21;20.40;45.70
80367;DHT22;70058;42.660;23.366;2023-07-29T02:11:53;20.40;46.10
80367;DHT22;70058;42.660;23.366;2023-07-29T02:14:19;20.40;46.10
80367;DHT22;70058;42.660;23.366;2023-07-29T02:16:44;20.40;46.20
80367;DHT22;70058;42.660;23.366;2023-07-29T02:19:10;20.30;46.40
80367;DHT22;70058;42.660;23.366;2023-07-29T02:21:37;20.30;46.30
80367;DHT22;70058;42.660;23.366;2023-07-29T02:24:05;20.30;46.30
80367;DHT22;70058;42.660;23.366;2023-07-29T02:26:30;20.20;47.00
80367;DHT22;70058;42.660;23.366;2023-07-29T02:28:59;20.30;47.10
80367;DHT22;70058;42.660;23.366;2023-07-29T02:31:26;20.30;46.80
80367;DHT22;70058;42.660;23.366;2023-07-29T02:33:53;20.20;47.10
80367;DHT22;70058;42.660;23.366;2023-07-29T02:36:21;20.10;47.50
80367;DHT22;70058;42.660;23.366;2023-07-29T02:38:52;20.10;47.40
80367;DHT22;70058;42.660;23.366;2023-07-29T02:41:18;20.00;47.90
80367;DHT22;70058;42.660;23.366;2023-07-29T02:43:48;20.00;47.70
80367;DHT22;70058;42.660;23.366;2023-07-29T02:46:14;20.00;48.10
80367;DHT22;70058;42.660;23.366;2023-07-29T02:48:39;20.00;47.90
80367;DHT22;70058;42.660;23.366;2023-07-29T02:51:05;20.00;47.60
80367;DHT22;70058;42.660;23.366;2023-07-29T02:53:31;20.10;47.40
80367;DHT22;70058;42.660;23.366;2023-07-29T02:55:56;20.10;47.70
80367;DHT22;70058;42.660;23.366;2023-07-29T02:58:22;20.10;47.30
80367;DHT22;70058;42.660;23.366;2023-07-29T03:00:48;20.10;47.20
80367;DHT22;70058;42.660;23.366;2023-07-29T03:03:14;20.10;47.50
80367;DHT22;70058;42.660;23.366;2023-07-29T03:05:40;20.00;47.70
80367;DHT22;70058;42.660;23.366;2023-07-29T03:08:05;20.00;47.70
80367;DHT22;70058;42.660;23.366;2023-07-29T03:10:31;19.90;48.10
80367;DHT22;70058;42.660;23.366;2023-07-29T03:12:57;19.80;48.10
80367;DHT22;70058;42.660;23.366;2023-07-29T03:15:25;19.80;48.40
80367;DHT22;70058;42.660;23.366;2023-07-29T03:17:54;19.90;47.50
80367;DHT22;70058;42.660;23.366;2023-07-29T03:20:20;19.80;47.40
80367;DHT22;70058;42.660;23.366;2023-07-29T03:22:46;19.80;47.30
80367;DHT22;70058;42.660;23.366;2023-07-29T03:25:12;19.80;47.70
80367;DHT22;70058;42.660;23.366;2023-07-29T03:27:38;19.80;47.50
80367;DHT22;70058;42.660;23.366;2023-07-29T03:30:05;19.80;47.30
80367;DHT22;70058;42.660;23.366;2023-07-29T03:32:31;19.80;47.20
80367;DHT22;70058;42.660;23.366;2023-07-29T03:34:58;19.80;47.40
80367;DHT22;70058;42.660;23.366;2023-07-29T03:37:25;19.70;47.50
80367;DHT22;70058;42.660;23.366;2023-07-29T03:39:57;19.90;46.70
80367;DHT22;70058;42.660;23.366;2023-07-29T03:42:23;19.80;47.20
80367;DHT22;70058;42.660;23.366;2023-07-29T03:44:48;20.00;46.60
80367;DHT22;70058;42.660;23.366;2023-07-29T03:47:14;19.90;46.50
80367;DHT22;70058;42.660;23.366;2023-07-29T03:49:40;19.90;46.60
80367;DHT22;70058;42.660;23.366;2023-07-29T03:52:05;20.00;46.70
80367;DHT22;70058;42.660;23.366;2023-07-29T03:54:34;20.00;46.90
80367;DHT22;70058;42.660;23.366;2023-07-29T03:57:00;20.10;46.50
80367;DHT22;70058;42.660;23.366;2023-07-29T03:59:26;20.00;47.00
80367;DHT22;70058;42.660;23.366;2023-07-29T04:01:51;20.00;47.00
80367;DHT22;70058;42.660;23.366;2023-07-29T04:04:23;20.10;46.70
80367;DHT22;70058;42.660;23.366;2023-07-29T04:06:49;20.20;46.40
80367;DHT22;70058;42.660;23.366;2023-07-29T04:09:14;20.20;46.20
80367;DHT22;70058;42.660;23.366;2023-07-29T04:11:40;20.20;46.40
80367;DHT22;70058;42.660;23.366;2023-07-29T04:14:06;20.30;45.90
80367;DHT22;70058;42.660;23.366;2023-07-29T04:16:31;20.40;45.80
80367;DHT22;70058;42.660;23.366;2023-07-29T04:18:57;20.40;45.70
80367;DHT22;70058;42.660;23.366;2023-07-29T04:21:23;20.40;45.70
80367;DHT22;70058;42.660;23.366;2023-07-29T04:23:48;20.40;46.10
80367;DHT22;70058;42.660;23.366;2023-07-29T04:26:14;20.50;46.10
80367;DHT22;70058;42.660;23.366;2023-07-29T04:28:40;20.60;46.00
80367;DHT22;70058;42.660;23.366;2023-07-29T04:31:05;21.80;44.00
80367;DHT22;70058;42.660;23.366;2023-07-29T04:33:31;23.10;41.00
80367;DHT22;70058;42.660;23.366;2023-07-29T04:35:58;23.80;39.00
80367;DHT22;70058;42.660;23.366;2023-07-29T04:38:30;23.90;38.40
80367;DHT22;70058;42.660;23.366;2023-07-29T04:40:56;23.50;38.40
80367;DHT22;70058;42.660;23.366;2023-07-29T04:43:21;23.30;39.30
80367;DHT22;70058;42.660;23.366;2023-07-29T04:45:47;23.10;40.30
80367;DHT22;70058;42.660;23.366;2023-07-29T04:48:19;22.90;40.60
80367;DHT22;70058;42.660;23.366;2023-07-29T04:50:52;22.80;40.90
80367;DHT22;70058;42.660;23.366;2023-07-29T04:53:18;22.70;41.00
80367;DHT22;70058;42.660;23.366;2023-07-29T04:55:44;22.70;40.40
80367;DHT22;70058;42.660;23.366;2023-07-29T04:58:17;22.60;40.50
80367;DHT22;70058;42.660;23.366;2023-07-29T05:00:43;22.70;40.50
80367;DHT22;70058;42.660;23.366;2023-07-29T05:03:08;22.60;40.50
80367;DHT22;70058;42.660;23.366;2023-07-29T05:05:34;22.50;41.10
80367;DHT22;70058;42.660;23.366;2023-07-29T05:08:00;22.40;41.20
80367;DHT22;70058;42.660;23.366;2023-07-29T05:10:25;22.40;41.20
80367;DHT22;70058;42.660;23.366;2023-07-29T05:12:51;22.40;41.60
80367;DHT22;70058;42.660;23.366;2023-07-29T05:15:17;22.40;41.60
80367;DHT22;70058;42.660;23.366;2023-07-29T05:17:44;22.40;41.40
80367;DHT22;70058;42.660;23.366;2023-07-29T05:20:09;22.40;41.10
80367;DHT22;70058;42.660;23.366;2023-07-29T05:22:41;22.50;41.20
80367;DHT22;70058;42.660;23.366;2023-07-29T05:25:07;22.60;40.80
80367;DHT22;70058;42.660;23.366;2023-07-29T05:27:33;22.60;41.00
80367;DHT22;70058;42.660;23.366;2023-07-29T05:30:00;22.60;41.00
80367;DHT22;70058;42.660;23.366;2023-07-29T05:32:26;22.70;41.20
80367;DHT22;70058;42.660;23.366;2023-07-29T05:34:51;22.70;41.20
80367;DHT22;70058;42.660;23.366;2023-07-29T05:37:17;22.80;40.40
80367;DHT22;70058;42.660;23.366;2023-07-29T05:39:43;22.60;41.40
80367;DHT22;70058;42.660;23.366;2023-07-29T05:42:08;22.80;40.30
80367;DHT22;70058;42.660;23.366;2023-07-29T05:44:34;23.00;39.90
80367;DHT22;70058;42.660;23.366;2023-07-29T05:47:00;23.10;40.10
80367;DHT22;70058;42.660;23.366;2023-07-29T05:49:26;23.20;39.40
80367;DHT22;70058;42.660;23.366;2023-07-29T05:51:51;23.30;39.40
80367;DHT22;70058;42.660;23.366;2023-07-29T05:54:18;23.40;39.40
80367;DHT22;70058;42.660;23.366;2023-07-29T05:56:44;23.60;39.10
80367;DHT22;70058;42.660;23.366;2023-07-29T05:59:10;24.00;38.90
80367;DHT22;70058;42.660;23.366;2023-07-29T06:01:35;24.40;37.60
80367;DHT22;70058;42.660;23.366;2023-07-29T06:04:07;25.50;35.90
80367;DHT22;70058;42.660;23.366;2023-07-29T06:06:33;28.50;32.00
80367;DHT22;70058;42.660;23.366;2023-07-29T06:08:59;31.60;28.20
80367;DHT22;70058;42.660;23.366;2023-07-29T06:11:25;34.40;25.50
80367;DHT22;70058;42.660;23.366;2023-07-29T06:13:50;36.60;23.60
80367;DHT22;70058;42.660;23.366;2023-07-29T06:16:16;38.20;22.10
80367;DHT22;70058;42.660;23.366;2023-07-29T06:18:41;39.70;21.00
80367;DHT22;70058;42.660;23.366;2023-07-29T06:21:13;41.10;19.80
80367;DHT22;70058;42.660;23.366;2023-07-29T06:23:43;42.30;18.80
80367;DHT22;70058;42.660;23.366;2023-07-29T06:26:09;43.40;18.30
80367;DHT22;70058;42.660;23.366;2023-07-29T06:28:34;44.30;17.50
80367;DHT22;70058;42.660;23.366;2023-07-29T06:31:00;45.10;17.00
80367;DHT22;70058;42.660;23.366;2023-07-29T06:33:26;45.70;16.70
80367;DHT22;70058;42.660;23.366;2023-07-29T06:35:52;46.30;16.10
80367;DHT22;70058;42.660;23.366;2023-07-29T06:38:23;46.60;15.80
80367;DHT22;70058;42.660;23.366;2023-07-29T06:40:49;46.60;15.80
80367;DHT22;70058;42.660;23.366;2023-07-29T06:43:15;47.00;15.40
80367;DHT22;70058;42.660;23.366;2023-07-29T06:45:40;47.40;15.30
80367;DHT22;70058;42.660;23.366;2023-07-29T06:48:06;47.30;15.10
80367;DHT22;70058;42.660;23.366;2023-07-29T06:50:32;48.00;15.00
80367;DHT22;70058;42.660;23.366;2023-07-29T06:52:58;48.10;14.60
80367;DHT22;70058;42.660;23.366;2023-07-29T06:55:23;48.60;14.70
80367;DHT22;70058;42.660;23.366;2023-07-29T06:57:49;49.00;14.50
80367;DHT22;70058;42.660;23.366;2023-07-29T07:00:15;49.30;14.30
80367;DHT22;70058;42.660;23.366;2023-07-29T07:02:40;49.30;14.30
80367;DHT22;70058;42.660;23.366;2023-07-29T07:05:07;49.60;14.20
80367;DHT22;70058;42.660;23.366;2023-07-29T07:07:32;49.80;14.00
80367;DHT22;70058;42.660;23.366;2023-07-29T07:09:58;50.30;13.90
80367;DHT22;70058;42.660;23.366;2023-07-29T07:12:24;50.60;13.50
80367;DHT22;70058;42.660;23.366;2023-07-29T07:14:56;50.90;13.40
80367;DHT22;70058;42.660;23.366;2023-07-29T07:17:22;50.40;13.50
80367;DHT22;70058;42.660;23.366;2023-07-29T07:19:48;50.80;13.50
80367;DHT22;70058;42.660;23.366;2023-07-29T07:22:13;51.40;13.20
80367;DHT22;70058;42.660;23.366;2023-07-29T07:24:39;51.30;12.90
80367;DHT22;70058;42.660;23.366;2023-07-29T07:27:05;51.00;13.10
80367;DHT22;70058;42.660;23.366;2023-07-29T07:29:30;51.40;13.10
80367;DHT22;70058;42.660;23.366;2023-07-29T07:31:56;51.80;12.80
80367;DHT22;70058;42.660;23.366;2023-07-29T07:34:22;52.00;12.80
80367;DHT22;70058;42.660;23.366;2023-07-29T07:36:48;52.60;12.50
80367;DHT22;70058;42.660;23.366;2023-07-29T07:39:15;52.70;12.30
80367;DHT22;70058;42.660;23.366;2023-07-29T07:41:41;52.70;12.30
80367;DHT22;70058;42.660;23.366;2023-07-29T07:44:07;52.80;12.30
80367;DHT22;70058;42.660;23.366;2023-07-29T07:46:33;53.10;12.10
80367;DHT22;70058;42.660;23.366;2023-07-29T07:48:59;53.50;12.10
80367;DHT22;70058;42.660;23.366;2023-07-29T07:51:25;50.80;12.40
80367;DHT22;70058;42.660;23.366;2023-07-29T07:53:56;51.00;12.90
80367;DHT22;70058;42.660;23.366;2023-07-29T07:56:22;50.70;13.00
80367;DHT22;70058;42.660;23.366;2023-07-29T07:58:48;51.60;12.70
80367;DHT22;70058;42.660;23.366;2023-07-29T08:01:13;52.50;12.50
80367;DHT22;70058;42.660;23.366;2023-07-29T08:03:40;52.70;12.40
80367;DHT22;70058;42.660;23.366;2023-07-29T08:06:05;52.60;12.40
80367;DHT22;70058;42.660;23.366;2023-07-29T08:08:31;53.00;12.20
80367;DHT22;70058;42.660;23.366;2023-07-29T08:11:04;53.70;12.10
80367;DHT22;70058;42.660;23.366;2023-07-29T08:13:29;54.30;11.70
80367;DHT22;70058;42.660;23.366;2023-07-29T08:15:55;52.30;12.00
80367;DHT22;70058;42.660;23.366;2023-07-29T08:18:20;52.90;11.80
80367;DHT22;70058;42.660;23.366;2023-07-29T08:23:19;53.70;11.20
80367;DHT22;70058;42.660;23.366;2023-07-29T08:25:49;54.00;11.50
80367;DHT22;70058;42.660;23.366;2023-07-29T08:28:18;54.60;11.30
80367;DHT22;70058;42.660;23.366;2023-07-29T08:30:50;54.80;11.40
80367;DHT22;70058;42.660;23.366;2023-07-29T08:33:16;55.40;11.00
80367;DHT22;70058;42.660;23.366;2023-07-29T08:35:42;52.30;11.50
80367;DHT22;70058;42.660;23.366;2023-07-29T08:38:07;53.40;11.60
80367;DHT22;70058;42.660;23.366;2023-07-29T08:40:35;54.60;11.20
80367;DHT22;70058;42.660;23.366;2023-07-29T08:43:06;55.30;11.00
80367;DHT22;70058;42.660;23.366;2023-07-29T08:45:40;55.40;10.70
80367;DHT22;70058;42.660;23.366;2023-07-29T08:48:08;55.90;10.60
80367;DHT22;70058;42.660;23.366;2023-07-29T08:50:36;55.60;10.50
80367;DHT22;70058;42.660;23.366;2023-07-29T08:53:06;51.20;11.20
80367;DHT22;70058;42.660;23.366;2023-07-29T08:55:32;51.50;11.70
80367;DHT22;70058;42.660;23.366;2023-07-29T08:57:59;53.00;11.20
80367;DHT22;70058;42.660;23.366;2023-07-29T09:00:28;54.70;10.50
80367;DHT22;70058;42.660;23.366;2023-07-29T09:02:54;55.40;10.10
80367;DHT22;70058;42.660;23.366;2023-07-29T09:05:21;56.20;9.70
80367;DHT22;70058;42.660;23.366;2023-07-29T09:07:47;56.50;9.70
80367;DHT22;70058;42.660;23.366;2023-07-29T09:10:13;57.20;9.60
80367;DHT22;70058;42.660;23.366;2023-07-29T09:12:46;54.40;8.80
80367;DHT22;70058;42.660;23.366;2023-07-29T09:15:12;54.30;9.80
80367;DHT22;70058;42.660;23.366;2023-07-29T09:17:40;55.90;9.40
80367;DHT22;70058;42.660;23.366;2023-07-29T09:20:11;56.50;9.50
80367;DHT22;70058;42.660;23.366;2023-07-29T09:22:37;57.50;9.20
80367;DHT22;70058;42.660;23.366;2023-07-29T09:25:03;58.30;8.90
80367;DHT22;70058;42.660;23.366;2023-07-29T09:27:29;59.30;8.70
80367;DHT22;70058;42.660;23.366;2023-07-29T09:29:57;59.30;8.30
80367;DHT22;70058;42.660;23.366;2023-07-29T09:32:25;59.20;8.40
80367;DHT22;70058;42.660;23.366;2023-07-29T09:34:57;58.50;8.30
80367;DHT22;70058;42.660;23.366;2023-07-29T09:37:23;58.50;8.40
80367;DHT22;70058;42.660;23.366;2023-07-29T09:39:50;59.10;8.50
80367;DHT22;70058;42.660;23.366;2023-07-29T09:42:20;59.70;7.90
80367;DHT22;70058;42.660;23.366;2023-07-29T09:44:46;59.10;7.90
80367;DHT22;70058;42.660;23.366;2023-07-29T09:47:21;59.60;8.20
80367;DHT22;70058;42.660;23.366;2023-07-29T09:49:48;59.80;8.00
80367;DHT22;70058;42.660;23.366;2023-07-29T09:52:22;60.20;8.00
80367;DHT22;70058;42.660;23.366;2023-07-29T09:54:54;60.30;7.90
80367;DHT22;70058;42.660;23.366;2023-07-29T09:57:21;60.90;7.80
80367;DHT22;70058;42.660;23.366;2023-07-29T09:59:56;61.10;7.50
80367;DHT22;70058;42.660;23.366;2023-07-29T10:02:23;61.40;8.30
80367;DHT22;70058;42.660;23.366;2023-07-29T10:04:52;61.40;7.30
80367;DHT22;70058;42.660;23.366;2023-07-29T10:07:18;61.20;7.20
80367;DHT22;70058;42.660;23.366;2023-07-29T10:09:45;61.50;7.40
80367;DHT22;70058;42.660;23.366;2023-07-29T10:12:13;61.70;7.20
80367;DHT22;70058;42.660;23.366;2023-07-29T10:14:47;61.30;7.20
80367;DHT22;70058;42.660;23.366;2023-07-29T10:17:21;61.20;7.30
80367;DHT22;70058;42.660;23.366;2023-07-29T10:19:47;60.50;7.40
80367;DHT22;70058;42.660;23.366;2023-07-29T10:22:13;60.20;7.90
80367;DHT22;70058;42.660;23.366;2023-07-29T10:24:42;59.40;7.90
80367;DHT22;70058;42.660;23.366;2023-07-29T10:27:11;59.20;8.10
80367;DHT22;70058;42.660;23.366;2023-07-29T10:29:43;58.90;8.20
80367;DHT22;70058;42.660;23.366;2023-07-29T10:32:11;58.10;8.60
80367;DHT22;70058;42.660;23.366;2023-07-29T10:34:37;56.90;8.70
80367;DHT22;70058;42.660;23.366;2023-07-29T10:37:04;54.80;9.40
80367;DHT22;70058;42.660;23.366;2023-07-29T10:39:54;52.80;10.30
80367;DHT22;70058;42.660;23.366;2023-07-29T10:42:20;50.20;11.20
80367;DHT22;70058;42.660;23.366;2023-07-29T10:44:47;47.60;12.10
80367;DHT22;70058;42.660;23.366;2023-07-29T10:47:26;45.20;13.10
80367;DHT22;70058;42.660;23.366;2023-07-29T10:49:57;43.50;13.80
80367;DHT22;70058;42.660;23.366;2023-07-29T10:55:02;39.10;16.40
80367;DHT22;70058;42.660;23.366;2023-07-29T10:57:34;38.70;16.60
80367;DHT22;70058;42.660;23.366;2023-07-29T11:00:01;38.20;17.00
80367;DHT22;70058;42.660;23.366;2023-07-29T11:02:35;37.00;16.90
80367;DHT22;70058;42.660;23.366;2023-07-29T11:05:06;36.00;18.30
80367;DHT22;70058;42.660;23.366;2023-07-29T11:07:47;35.80;18.40
80367;DHT22;70058;42.660;23.366;2023-07-29T11:10:14;35.80;18.20
80367;DHT22;70058;42.660;23.366;2023-07-29T11:12:47;35.70;18.20
80367;DHT22;70058;42.660;23.366;2023-07-29T11:15:28;35.60;18.50
80367;DHT22;70058;42.660;23.366;2023-07-29T11:18:01;35.20;18.70
80367;DHT22;70058;42.660;23.366;2023-07-29T11:20:33;34.50;19.00
80367;DHT22;70058;42.660;23.366;2023-07-29T11:23:03;33.80;19.80
80367;DHT22;70058;42.660;23.366;2023-07-29T11:25:30;34.20;19.70
80367;DHT22;70058;42.660;23.366;2023-07-29T11:27:58;34.10;19.90
80367;DHT22;70058;42.660;23.366;2023-07-29T11:30:24;34.40;19.50
80367;DHT22;70058;42.660;23.366;2023-07-29T11:32:53;34.50;19.40
80367;DHT22;70058;42.660;23.366;2023-07-29T11:35:19;34.50;19.00
80367;DHT22;70058;42.660;23.366;2023-07-29T11:37:47;34.50;19.00
80367;DHT22;70058;42.660;23.366;2023-07-29T11:40:18;34.20;19.30
80367;DHT22;70058;42.660;23.366;2023-07-29T11:42:45;33.80;20.30
80367;DHT22;70058;42.660;23.366;2023-07-29T11:45:11;34.10;19.80
80367;DHT22;70058;42.660;23.366;2023-07-29T11:47:41;34.10;20.00
80367;DHT22;70058;42.660;23.366;2023-07-29T11:50:09;34.30;20.00
80367;DHT22;70058;42.660;23.366;2023-07-29T11:52:36;34.40;19.80
80367;DHT22;70058;42.660;23.366;2023-07-29T11:55:03;34.30;19.50
80367;DHT22;70058;42.660;23.366;2023-07-29T11:57:38;34.30;19.60
80367;DHT22;70058;42.660;23.366;2023-07-29T12:00:11;34.30;19.80
80367;DHT22;70058;42.660;23.366;2023-07-29T12:12:48;33.60;20.80
80367;DHT22;70058;42.660;23.366;2023-07-29T12:15:25;33.80;20.40
80367;DHT22;70058;42.660;23.366;2023-07-29T12:17:56;34.00;20.30
80367;DHT22;70058;42.660;23.366;2023-07-29T12:20:22;34.10;20.30
80367;DHT22;70058;42.660;23.366;2023-07-29T12:25:20;34.20;19.20
80367;DHT22;70058;42.660;23.366;2023-07-29T12:27:47;34.10;19.00
80367;DHT22;70058;42.660;23.366;2023-07-29T12:30:12;34.20;19.10
80367;DHT22;70058;42.660;23.366;2023-07-29T12:32:46;34.30;18.80
80367;DHT22;70058;42.660;23.366;2023-07-29T12:35:22;34.30;18.70
80367;DHT22;70058;42.660;23.366;2023-07-29T12:37:58;34.30;18.60
80367;DHT22;70058;42.660;23.366;2023-07-29T12:40:26;34.40;19.00
80367;DHT22;70058;42.660;23.366;2023-07-29T12:42:53;34.30;18.80
80367;DHT22;70058;42.660;23.366;2023-07-29T12:45:19;34.50;18.50
80367;DHT22;70058;42.660;23.366;2023-07-29T12:47:45;34.20;18.60
80367;DHT22;70058;42.660;23.366;2023-07-29T12:50:11;33.80;18.90
80367;DHT22;70058;42.660;23.366;2023-07-29T12:52:36;33.90;19.20
80367;DHT22;70058;42.660;23.366;2023-07-29T12:55:02;33.70;19.30
80367;DHT22;70058;42.660;23.366;2023-07-29T12:57:28;34.00;19.80
80367;DHT22;70058;42.660;23.366;2023-07-29T12:59:54;34.20;19.10
80367;DHT22;70058;42.660;23.366;2023-07-29T13:02:19;34.40;19.40
80367;DHT22;70058;42.660;23.366;2023-07-29T13:04:45;34.60;19.40
80367;DHT22;70058;42.660;23.366;2023-07-29T13:07:11;34.80;19.30
80367;DHT22;70058;42.660;23.366;2023-07-29T13:09:36;35.00;18.50
80367;DHT22;70058;42.660;23.366;2023-07-29T13:12:02;35.00;19.40
80367;DHT22;70058;42.660;23.366;2023-07-29T13:14:28;35.00;18.60
80367;DHT22;70058;42.660;23.366;2023-07-29T13:16:53;34.80;18.50
80367;DHT22;70058;42.660;23.366;2023-07-29T13:19:19;34.70;18.70
80367;DHT22;70058;42.660;23.366;2023-07-29T13:21:45;34.70;19.00
80367;DHT22;70058;42.660;23.366;2023-07-29T13:24:13;34.70;18.60
80367;DHT22;70058;42.660;23.366;2023-07-29T13:26:39;34.70;18.10
80367;DHT22;70058;42.660;23.366;2023-07-29T13:29:10;34.60;18.00
80367;DHT22;70058;42.660;23.366;2023-07-29T13:31:39;34.60;18.10
80367;DHT22;70058;42.660;23.366;2023-07-29T13:34:05;34.00;18.70
80367;DHT22;70058;42.660;23.366;2023-07-29T13:36:31;33.80;18.40
80367;DHT22;70058;42.660;23.366;2023-07-29T13:38:56;33.80;18.70
80367;DHT22;70058;42.660;23.366;2023-07-29T13:41:22;33.90;18.80
80367;DHT22;70058;42.660;23.366;2023-07-29T13:43:49;34.00;18.60
80367;DHT22;70058;42.660;23.366;2023-07-29T13:46:14;33.90;18.50
80367;DHT22;70058;42.660;23.366;2023-07-29T13:48:40;33.30;18.60
80367;DHT22;70058;42.660;23.366;2023-07-29T13:51:10;32.80;19.20
80367;DHT22;70058;42.660;23.366;2023-07-29T13:53:39;33.10;19.30
80367;DHT22;70058;42.660;23.366;2023-07-29T13:56:05;33.20;19.60
80367;DHT22;70058;42.660;23.366;2023-07-29T13:58:30;33.30;19.70
80367;DHT22;70058;42.660;23.366;2023-07-29T14:00:56;33.20;19.30
80367;DHT22;70058;42.660;23.366;2023-07-29T14:03:23;33.30;19.60
80367;DHT22;70058;42.660;23.366;2023-07-29T14:05:50;33.50;19.20
80367;DHT22;70058;42.660;23.366;2023-07-29T14:08:21;33.60;19.10
80367;DHT22;70058;42.660;23.366;2023-07-29T14:10:49;33.50;19.30
80367;DHT22;70058;42.660;23.366;2023-07-29T14:13:16;33.40;19.70
80367;DHT22;70058;42.660;23.366;2023-07-29T14:15:42;33.10;21.70
80367;DHT22;70058;42.660;23.366;2023-07-29T14:18:08;33.10;22.20
80367;DHT22;70058;42.660;23.366;2023-07-29T14:20:35;33.20;21.60
80367;DHT22;70058;42.660;23.366;2023-07-29T14:23:04;33.20;22.30
80367;DHT22;70058;42.660;23.366;2023-07-29T14:25:30;33.30;22.10
80367;DHT22;70058;42.660;23.366;2023-07-29T14:27:55;33.30;22.00
80367;DHT22;70058;42.660;23.366;2023-07-29T14:30:21;33.10;22.20
80367;DHT22;70058;42.660;23.366;2023-07-29T14:32:48;33.10;22.30
80367;DHT22;70058;42.660;23.366;2023-07-29T14:35:14;32.80;22.90
80367;DHT22;70058;42.660;23.366;2023-07-29T14:37:40;32.60;23.80
80367;DHT22;70058;42.660;23.366;2023-07-29T14:40:08;32.30;24.20
80367;DHT22;70058;42.660;23.366;2023-07-29T14:42:36;31.60;25.30
80367;DHT22;70058;42.660;23.366;2023-07-29T14:45:03;31.40;25.40
80367;DHT22;70058;42.660;23.366;2023-07-29T18:03:25;27.40;31.70
80367;DHT22;70058;42.660;23.366;2023-07-29T18:05:57;27.40;31.80
80367;DHT22;70058;42.660;23.366;2023-07-29T18:08:24;27.10;32.20
80367;DHT22;70058;42.660;23.366;2023-07-29T18:10:49;27.30;32.50
80367;DHT22;70058;42.660;23.366;2023-07-29T18:13:16;27.40;32.60
80367;DHT22;70058;42.660;23.366;2023-07-29T18:15:42;27.50;32.20
80367;DHT22;70058;42.660;23.366;2023-07-29T18:18:07;27.50;32.60
80367;DHT22;70058;42.660;23.366;2023-07-29T18:20:33;27.50;32.80
80367;DHT22;70058;42.660;23.366;2023-07-29T18:23:01;27.50;32.60
80367;DHT22;70058;42.660;23.366;2023-07-29T18:25:33;27.50;32.70
80367;DHT22;70058;42.660;23.366;2023-07-29T18:27:59;27.60;32.30
80367;DHT22;70058;42.660;23.366;2023-07-29T18:30:25;27.30;32.70
80367;DHT22;70058;42.660;23.366;2023-07-29T18:32:51;27.30;32.90
80367;DHT22;70058;42.660;23.366;2023-07-29T18:35:16;27.10;33.30
80367;DHT22;70058;42.660;23.366;2023-07-29T18:37:47;27.30;33.30
80367;DHT22;70058;42.660;23.366;2023-07-29T18:40:19;27.30;33.50
80367;DHT22;70058;42.660;23.366;2023-07-29T18:42:45;27.50;33.40
80367;DHT22;70058;42.660;23.366;2023-07-29T18:45:10;27.50;33.20
80367;DHT22;70058;42.660;23.366;2023-07-29T18:47:36;27.50;33.20
80367;DHT22;70058;42.660;23.366;2023-07-29T18:50:02;27.40;33.30
80367;DHT22;70058;42.660;23.366;2023-07-29T18:52:29;27.20;33.70
80367;DHT22;70058;42.660;23.366;2023-07-29T18:55:00;27.30;33.90
80367;DHT22;70058;42.660;23.366;2023-07-29T18:57:32;27.30;33.90
80367;DHT22;70058;42.660;23.366;2023-07-29T18:59:58;27.30;34.00
80367;DHT22;70058;42.660;23.366;2023-07-29T19:02:26;27.30;34.00
80367;DHT22;70058;42.660;23.366;2023-07-29T19:04:52;27.30;34.20